sensor_id;sensor_type;location;lat;lon;timestamp;pressure;altitude;pressure_sealevel;temperature;humidity
64698;BME280;51124;53.394;-6.294;2023-10-31T10:08:57;99063.75;;;20.61;13.97
64698;BME280;51124;53.394;-6.294;2023-10-31T10:11:23;99064.73;;;18.81;13.50
64698;BME280;51124;53.394;-6.294;2023-10-31T10:13:51;99061.96;;;19.49;12.76
64698;BME280;51124;53.394;-6.294;2023-10-31T10:16:29;99064.79;;;19.17;12.47
64698;BME280;51124;53.394;-6.294;2023-10-31T10:18:47;99065.21;;;20.29;11.84
64698;BME280;51124;53.394;-6.294;2023-10-31T10:21:12;99063.81;;;19.12;11.27
64698;BME280;51124;53.394;-6.294;2023-10-31T10:23:37;99062.94;;;19.92;10.65
64698;BME280;51124;53.394;-6.294;2023-10-31T10:26:03;99072.34;;;18.39;10.80
64698;BME280;51124;53.394;-6.294;2023-10-31T10:28:28;99074.23;;;19.34;10.38
64698;BME280;51124;53.394;-6.294;2023-10-31T10:30:54;99074.65;;;19.02;10.25
64698;BME280;51124;53.394;-6.294;2023-10-31T10:33:20;99073.43;;;18.76;10.24
64698;BME280;51124;53.394;-6.294;2023-10-31T10:35:45;99070.30;;;17.74;10.74
64698;BME280;51124;53.394;-6.294;2023-10-31T10:38:12;99073.90;;;18.33;11.25
64698;BME280;51124;53.394;-6.294;2023-10-31T10:40:39;99080.07;;;18.36;12.15
64698;BME280;51124;53.394;-6.294;2023-10-31T10:43:08;99081.84;;;16.66;12.79
64698;BME280;51124;53.394;-6.294;2023-10-31T10:45:40;99080.35;;;17.56;12.33
64698;BME280;51124;53.394;-6.294;2023-10-31T10:48:11;99076.59;;;18.43;11.87
64698;BME280;51124;53.394;-6.294;2023-10-31T10:50:38;99080.53;;;18.64;11.78
64698;BME280;51124;53.394;-6.294;2023-10-31T10:53:09;99077.41;;;18.75;11.73
64698;BME280;51124;53.394;-6.294;2023-10-31T10:55:43;99076.00;;;17.80;11.85
64698;BME280;51124;53.394;-6.294;2023-10-31T10:58:17;99078.77;;;18.05;11.92
64698;BME280;51124;53.394;-6.294;2023-10-31T11:00:36;99076.20;;;18.86;12.13
64698;BME280;51124;53.394;-6.294;2023-10-31T11:03:01;99075.82;;;18.93;11.61
64698;BME280;51124;53.394;-6.294;2023-10-31T11:05:28;99076.28;;;18.12;11.73
64698;BME280;51124;53.394;-6.294;2023-10-31T11:07:53;99074.02;;;18.74;11.68
64698;BME280;51124;53.394;-6.294;2023-10-31T11:10:22;99071.02;;;19.19;11.43
64698;BME280;51124;53.394;-6.294;2023-10-31T11:12:47;99072.59;;;19.03;11.54
64698;BME280;51124;53.394;-6.294;2023-10-31T11:15:14;99067.83;;;19.20;11.50
64698;BME280;51124;53.394;-6.294;2023-10-31T11:17:42;99065.55;;;19.05;11.41
64698;BME280;51124;53.394;-6.294;2023-10-31T11:20:10;99070.64;;;19.21;11.63
64698;BME280;51124;53.394;-6.294;2023-10-31T11:22:25;99077.10;;;18.56;11.76
64698;BME280;51124;53.394;-6.294;2023-10-31T11:24:51;99077.39;;;18.73;11.50
64698;BME280;51124;53.394;-6.294;2023-10-31T11:27:18;99073.57;;;18.09;11.81
64698;BME280;51124;53.394;-6.294;2023-10-31T11:29:43;99075.50;;;18.29;11.78
64698;BME280;51124;53.394;-6.294;2023-10-31T11:32:09;99077.79;;;18.50;11.88
64698;BME280;51124;53.394;-6.294;2023-10-31T11:34:38;99079.20;;;17.56;11.87
64698;BME280;51124;53.394;-6.294;2023-10-31T11:37:39;99082.56;;;19.48;11.13
64698;BME280;51124;53.394;-6.294;2023-10-31T11:39:34;99082.92;;;18.97;11.27
64698;BME280;51124;53.394;-6.294;2023-10-31T11:42:00;99088.18;;;20.98;10.51
64698;BME280;51124;53.394;-6.294;2023-10-31T11:44:31;99087.00;;;21.16;10.38
64698;BME280;51124;53.394;-6.294;2023-10-31T11:46:59;99083.56;;;20.98;10.36
64698;BME280;51124;53.394;-6.294;2023-10-31T11:49:47;99085.90;;;20.36;10.28
64698;BME280;51124;53.394;-6.294;2023-10-31T11:51:52;99083.11;;;21.65;10.18
64698;BME280;51124;53.394;-6.294;2023-10-31T11:54:18;99079.78;;;20.91;10.28
64698;BME280;51124;53.394;-6.294;2023-10-31T11:56:51;99076.42;;;20.55;10.21
64698;BME280;51124;53.394;-6.294;2023-10-31T11:59:16;99074.06;;;23.32;10.51
64698;BME280;51124;53.394;-6.294;2023-10-31T12:01:45;99074.76;;;22.98;11.12
64698;BME280;51124;53.394;-6.294;2023-10-31T12:04:20;99079.46;;;21.19;11.11
64698;BME280;51124;53.394;-6.294;2023-10-31T12:06:35;99082.40;;;22.36;11.85
64698;BME280;51124;53.394;-6.294;2023-10-31T12:09:01;99089.62;;;23.25;12.57
64698;BME280;51124;53.394;-6.294;2023-10-31T12:11:26;99092.41;;;22.10;13.15
64698;BME280;51124;53.394;-6.294;2023-10-31T12:13:54;99092.54;;;21.81;13.62
64698;BME280;51124;53.394;-6.294;2023-10-31T12:16:22;99090.95;;;21.19;13.62
64698;BME280;51124;53.394;-6.294;2023-10-31T12:18:55;99088.65;;;20.96;13.90
64698;BME280;51124;53.394;-6.294;2023-10-31T12:21:33;99085.53;;;21.99;13.60
64698;BME280;51124;53.394;-6.294;2023-10-31T12:23:48;99085.04;;;21.28;13.74
64698;BME280;51124;53.394;-6.294;2023-10-31T12:26:14;99084.28;;;21.13;13.77
64698;BME280;51124;53.394;-6.294;2023-10-31T12:28:45;99078.43;;;21.19;13.81
64698;BME280;51124;53.394;-6.294;2023-10-31T12:31:11;99076.14;;;20.86;14.09
64698;BME280;51124;53.394;-6.294;2023-10-31T12:33:36;99076.16;;;20.63;14.03
64698;BME280;51124;53.394;-6.294;2023-10-31T12:36:02;99072.89;;;21.21;13.83
64698;BME280;51124;53.394;-6.294;2023-10-31T12:38:28;99070.36;;;21.49;13.81
64698;BME280;51124;53.394;-6.294;2023-10-31T12:40:54;99066.28;;;20.93;13.91
64698;BME280;51124;53.394;-6.294;2023-10-31T12:43:21;99068.27;;;21.44;13.79
64698;BME280;51124;53.394;-6.294;2023-10-31T12:45:46;99071.09;;;21.02;13.90
64698;BME280;51124;53.394;-6.294;2023-10-31T12:48:12;99076.52;;;20.77;13.91
64698;BME280;51124;53.394;-6.294;2023-10-31T12:50:38;99079.15;;;20.91;13.91
64698;BME280;51124;53.394;-6.294;2023-10-31T12:53:03;99073.52;;;21.54;13.67
64698;BME280;51124;53.394;-6.294;2023-10-31T12:55:29;99072.78;;;21.42;13.62
64698;BME280;51124;53.394;-6.294;2023-10-31T12:57:56;99069.93;;;19.36;13.60
64698;BME280;51124;53.394;-6.294;2023-10-31T13:00:23;99064.75;;;18.05;13.06
64698;BME280;51124;53.394;-6.294;2023-10-31T13:03:00;99062.80;;;18.65;12.57
64698;BME280;51124;53.394;-6.294;2023-10-31T13:05:27;99059.52;;;19.47;12.16
64698;BME280;51124;53.394;-6.294;2023-10-31T13:07:54;99063.22;;;18.82;11.93
64698;BME280;51124;53.394;-6.294;2023-10-31T13:10:20;99061.65;;;18.59;11.71
64698;BME280;51124;53.394;-6.294;2023-10-31T13:12:46;99062.82;;;18.47;11.53
64698;BME280;51124;53.394;-6.294;2023-10-31T13:15:11;99065.48;;;18.98;11.26
64698;BME280;51124;53.394;-6.294;2023-10-31T13:17:36;99067.59;;;19.31;11.10
64698;BME280;51124;53.394;-6.294;2023-10-31T13:20:01;99065.40;;;20.34;10.12
64698;BME280;51124;53.394;-6.294;2023-10-31T13:22:26;99066.24;;;21.85;9.92
64698;BME280;51124;53.394;-6.294;2023-10-31T13:24:51;99065.40;;;21.03;10.13
64698;BME280;51124;53.394;-6.294;2023-10-31T13:27:17;99065.17;;;24.08;10.50
64698;BME280;51124;53.394;-6.294;2023-10-31T13:29:42;99066.89;;;24.15;11.34
64698;BME280;51124;53.394;-6.294;2023-10-31T13:32:08;99062.90;;;19.32;11.76
64698;BME280;51124;53.394;-6.294;2023-10-31T13:34:33;99050.29;;;19.53;11.35
64698;BME280;51124;53.394;-6.294;2023-10-31T13:36:58;99045.87;;;19.22;10.90
64698;BME280;51124;53.394;-6.294;2023-10-31T13:39:23;99042.73;;;19.78;10.62
64698;BME280;51124;53.394;-6.294;2023-10-31T13:41:48;99038.40;;;20.37;10.44
64698;BME280;51124;53.394;-6.294;2023-10-31T13:44:14;99035.97;;;19.95;10.38
64698;BME280;51124;53.394;-6.294;2023-10-31T13:46:39;99028.52;;;20.15;10.30
64698;BME280;51124;53.394;-6.294;2023-10-31T13:49:04;99024.09;;;20.46;10.25
64698;BME280;51124;53.394;-6.294;2023-10-31T13:51:30;99023.44;;;20.64;10.25
64698;BME280;51124;53.394;-6.294;2023-10-31T13:53:55;99022.23;;;20.23;10.29
64698;BME280;51124;53.394;-6.294;2023-10-31T13:56:20;99017.71;;;20.22;10.32
64698;BME280;51124;53.394;-6.294;2023-10-31T13:58:45;99021.81;;;20.33;10.28
64698;BME280;51124;53.394;-6.294;2023-10-31T14:01:10;99025.81;;;20.47;10.19
64698;BME280;51124;53.394;-6.294;2023-10-31T14:03:35;99024.46;;;20.49;10.28
64698;BME280;51124;53.394;-6.294;2023-10-31T14:06:01;99026.78;;;19.77;10.42
64698;BME280;51124;53.394;-6.294;2023-10-31T14:08:26;99028.64;;;19.55;10.34
64698;BME280;51124;53.394;-6.294;2023-10-31T14:10:51;99030.35;;;19.90;10.26
64698;BME280;51124;53.394;-6.294;2023-10-31T14:13:17;99032.86;;;19.55;10.39
64698;BME280;51124;53.394;-6.294;2023-10-31T14:15:42;99032.45;;;19.86;10.37
64698;BME280;51124;53.394;-6.294;2023-10-31T14:18:07;99030.61;;;20.26;10.35
64698;BME280;51124;53.394;-6.294;2023-10-31T14:20:32;99030.73;;;18.85;10.90
64698;BME280;51124;53.394;-6.294;2023-10-31T14:22:57;99033.37;;;19.40;11.10
64698;BME280;51124;53.394;-6.294;2023-10-31T14:25:22;99028.94;;;19.24;10.85
64698;BME280;51124;53.394;-6.294;2023-10-31T14:27:48;99028.64;;;20.00;10.76
64698;BME280;51124;53.394;-6.294;2023-10-31T14:30:13;99030.93;;;18.95;11.02
64698;BME280;51124;53.394;-6.294;2023-10-31T14:32:39;99030.11;;;20.35;10.22
64698;BME280;51124;53.394;-6.294;2023-10-31T14:35:05;99023.73;;;20.27;10.31
64698;BME280;51124;53.394;-6.294;2023-10-31T14:37:30;99024.00;;;20.70;10.33
64698;BME280;51124;53.394;-6.294;2023-10-31T14:39:55;99023.43;;;19.04;10.51
64698;BME280;51124;53.394;-6.294;2023-10-31T14:42:21;99019.49;;;20.87;10.13
64698;BME280;51124;53.394;-6.294;2023-10-31T14:44:46;99018.90;;;19.77;10.19
64698;BME280;51124;53.394;-6.294;2023-10-31T14:47:11;99020.55;;;19.50;10.37
64698;BME280;51124;53.394;-6.294;2023-10-31T14:49:36;99015.18;;;19.94;9.82
64698;BME280;51124;53.394;-6.294;2023-10-31T14:52:02;99016.11;;;20.23;9.78
64698;BME280;51124;53.394;-6.294;2023-10-31T14:54:27;99015.43;;;19.58;9.89
64698;BME280;51124;53.394;-6.294;2023-10-31T14:56:52;99011.89;;;19.07;10.00
64698;BME280;51124;53.394;-6.294;2023-10-31T14:59:17;99010.56;;;22.51;10.10
64698;BME280;51124;53.394;-6.294;2023-10-31T15:01:43;99019.60;;;21.63;10.84
64698;BME280;51124;53.394;-6.294;2023-10-31T15:04:08;99023.80;;;19.63;10.84
64698;BME280;51124;53.394;-6.294;2023-10-31T15:06:33;99025.57;;;22.59;10.84
64698;BME280;51124;53.394;-6.294;2023-10-31T15:08:59;99033.17;;;22.06;11.62
64698;BME280;51124;53.394;-6.294;2023-10-31T15:11:24;99035.73;;;21.74;12.01
64698;BME280;51124;53.394;-6.294;2023-10-31T15:13:50;99037.72;;;22.11;12.37
64698;BME280;51124;53.394;-6.294;2023-10-31T15:16:15;99029.88;;;21.97;12.25
64698;BME280;51124;53.394;-6.294;2023-10-31T15:18:41;99023.83;;;22.12;12.53
64698;BME280;51124;53.394;-6.294;2023-10-31T15:21:06;99022.42;;;21.36;12.70
64698;BME280;51124;53.394;-6.294;2023-10-31T15:23:31;99019.11;;;21.66;12.77
64698;BME280;51124;53.394;-6.294;2023-10-31T15:25:57;99012.27;;;20.63;12.82
64698;BME280;51124;53.394;-6.294;2023-10-31T15:28:23;99015.88;;;21.34;12.86
64698;BME280;51124;53.394;-6.294;2023-10-31T15:30:48;99012.92;;;21.24;12.94
64698;BME280;51124;53.394;-6.294;2023-10-31T15:33:13;99005.89;;;20.35;13.55
64698;BME280;51124;53.394;-6.294;2023-10-31T15:35:39;99003.37;;;21.46;12.89
64698;BME280;51124;53.394;-6.294;2023-10-31T15:38:04;99005.25;;;21.42;13.29
64698;BME280;51124;53.394;-6.294;2023-10-31T15:40:29;99003.26;;;20.84;13.14
64698;BME280;51124;53.394;-6.294;2023-10-31T15:42:54;98998.85;;;21.87;13.00
64698;BME280;51124;53.394;-6.294;2023-10-31T15:45:20;98992.89;;;20.45;13.46
64698;BME280;51124;53.394;-6.294;2023-10-31T15:47:45;98990.60;;;19.95;14.01
64698;BME280;51124;53.394;-6.294;2023-10-31T15:50:11;98988.38;;;21.22;13.68
64698;BME280;51124;53.394;-6.294;2023-10-31T15:52:37;98983.85;;;20.15;13.26
64698;BME280;51124;53.394;-6.294;2023-10-31T15:55:02;98980.42;;;19.00;12.95
64698;BME280;51124;53.394;-6.294;2023-10-31T15:57:27;98982.79;;;19.04;12.10
64698;BME280;51124;53.394;-6.294;2023-10-31T15:59:52;98985.23;;;18.65;12.15
64698;BME280;51124;53.394;-6.294;2023-10-31T16:02:18;98983.84;;;19.56;11.78
64698;BME280;51124;53.394;-6.294;2023-10-31T16:04:43;98981.91;;;18.44;11.74
64698;BME280;51124;53.394;-6.294;2023-10-31T16:07:08;98982.12;;;18.55;11.50
64698;BME280;51124;53.394;-6.294;2023-10-31T16:09:33;98987.23;;;18.28;11.55
64698;BME280;51124;53.394;-6.294;2023-10-31T16:11:58;98991.71;;;18.12;11.63
64698;BME280;51124;53.394;-6.294;2023-10-31T16:14:24;98989.91;;;18.14;11.15
64698;BME280;51124;53.394;-6.294;2023-10-31T16:16:49;98986.14;;;19.85;10.77
64698;BME280;51124;53.394;-6.294;2023-10-31T16:19:15;98987.57;;;18.39;11.28
64698;BME280;51124;53.394;-6.294;2023-10-31T16:21:40;98975.23;;;19.47;10.67
64698;BME280;51124;53.394;-6.294;2023-10-31T16:24:06;98979.63;;;18.49;11.84
64698;BME280;51124;53.394;-6.294;2023-10-31T16:26:31;98977.52;;;18.54;11.54
64698;BME280;51124;53.394;-6.294;2023-10-31T16:28:56;98972.90;;;18.57;11.28
64698;BME280;51124;53.394;-6.294;2023-10-31T16:31:21;98963.15;;;18.78;11.10
64698;BME280;51124;53.394;-6.294;2023-10-31T16:33:48;98960.76;;;19.12;11.15
64698;BME280;51124;53.394;-6.294;2023-10-31T16:36:13;98951.27;;;18.06;11.18
64698;BME280;51124;53.394;-6.294;2023-10-31T16:38:38;98945.65;;;18.33;11.15
64698;BME280;51124;53.394;-6.294;2023-10-31T16:41:04;98949.39;;;17.63;11.25
64698;BME280;51124;53.394;-6.294;2023-10-31T16:43:30;98951.02;;;17.81;11.23
64698;BME280;51124;53.394;-6.294;2023-10-31T16:45:56;98950.78;;;18.04;11.19
64698;BME280;51124;53.394;-6.294;2023-10-31T16:48:21;98950.49;;;18.19;11.09
64698;BME280;51124;53.394;-6.294;2023-10-31T16:50:46;98950.06;;;18.58;10.88
64698;BME280;51124;53.394;-6.294;2023-10-31T16:53:12;98947.92;;;18.98;10.88
64698;BME280;51124;53.394;-6.294;2023-10-31T16:55:37;98948.29;;;18.66;10.83
64698;BME280;51124;53.394;-6.294;2023-10-31T16:58:02;98945.47;;;18.72;10.80
64698;BME280;51124;53.394;-6.294;2023-10-31T17:00:27;98946.73;;;19.61;10.65
64698;BME280;51124;53.394;-6.294;2023-10-31T17:02:52;98942.85;;;18.67;10.90
64698;BME280;51124;53.394;-6.294;2023-10-31T17:05:18;98937.12;;;18.46;10.73
64698;BME280;51124;53.394;-6.294;2023-10-31T17:07:43;98935.00;;;18.94;10.81
64698;BME280;51124;53.394;-6.294;2023-10-31T17:10:09;98933.19;;;17.88;11.00
64698;BME280;51124;53.394;-6.294;2023-10-31T17:12:34;98934.71;;;17.68;11.18
64698;BME280;51124;53.394;-6.294;2023-10-31T17:15:00;98932.30;;;18.03;10.96
64698;BME280;51124;53.394;-6.294;2023-10-31T17:17:25;98929.61;;;19.15;10.62
64698;BME280;51124;53.394;-6.294;2023-10-31T17:19:51;98928.29;;;20.30;10.51
64698;BME280;51124;53.394;-6.294;2023-10-31T17:22:16;98927.92;;;18.71;10.87
64698;BME280;51124;53.394;-6.294;2023-10-31T17:24:41;98925.49;;;19.30;10.68
64698;BME280;51124;53.394;-6.294;2023-10-31T17:27:06;98922.40;;;18.95;11.10
64698;BME280;51124;53.394;-6.294;2023-10-31T17:29:31;98915.98;;;18.15;11.11
64698;BME280;51124;53.394;-6.294;2023-10-31T17:31:56;98917.81;;;18.01;11.78
64698;BME280;51124;53.394;-6.294;2023-10-31T17:34:22;98917.71;;;17.92;11.95
64698;BME280;51124;53.394;-6.294;2023-10-31T17:36:47;98914.50;;;19.14;11.67
64698;BME280;51124;53.394;-6.294;2023-10-31T17:39:12;98915.26;;;18.46;11.02
64698;BME280;51124;53.394;-6.294;2023-10-31T17:41:37;98916.30;;;18.27;11.39
64698;BME280;51124;53.394;-6.294;2023-10-31T17:44:02;98914.87;;;19.94;10.79
64698;BME280;51124;53.394;-6.294;2023-10-31T17:46:28;98911.08;;;19.28;10.86
64698;BME280;51124;53.394;-6.294;2023-10-31T17:48:53;98909.72;;;21.86;10.98
64698;BME280;51124;53.394;-6.294;2023-10-31T17:51:18;98908.57;;;21.06;11.70
64698;BME280;51124;53.394;-6.294;2023-10-31T17:53:44;98907.18;;;19.24;11.93
64698;BME280;51124;53.394;-6.294;2023-10-31T17:56:09;98911.12;;;21.26;11.99
64698;BME280;51124;53.394;-6.294;2023-10-31T17:58:34;98909.84;;;21.74;12.50
64698;BME280;51124;53.394;-6.294;2023-10-31T18:01:00;98906.26;;;21.42;12.69
64698;BME280;51124;53.394;-6.294;2023-10-31T18:03:25;98907.95;;;21.87;12.77
64698;BME280;51124;53.394;-6.294;2023-10-31T18:05:51;98908.59;;;21.32;13.28
64698;BME280;51124;53.394;-6.294;2023-10-31T18:08:16;98900.69;;;21.16;13.47
64698;BME280;51124;53.394;-6.294;2023-10-31T18:10:41;98899.36;;;20.32;13.76
64698;BME280;51124;53.394;-6.294;2023-10-31T18:13:07;98896.89;;;20.23;13.75
64698;BME280;51124;53.394;-6.294;2023-10-31T18:15:32;98889.65;;;21.85;13.37
64698;BME280;51124;53.394;-6.294;2023-10-31T18:17:58;98886.70;;;20.50;13.57
64698;BME280;51124;53.394;-6.294;2023-10-31T18:20:23;98888.28;;;21.44;13.43
64698;BME280;51124;53.394;-6.294;2023-10-31T18:22:48;98890.92;;;20.93;13.80
64698;BME280;51124;53.394;-6.294;2023-10-31T18:25:14;98882.84;;;21.17;13.59
64698;BME280;51124;53.394;-6.294;2023-10-31T18:27:39;98881.35;;;20.30;13.88
64698;BME280;51124;53.394;-6.294;2023-10-31T18:30:06;98874.39;;;21.38;13.60
64698;BME280;51124;53.394;-6.294;2023-10-31T18:32:31;98868.54;;;21.56;13.56
64698;BME280;51124;53.394;-6.294;2023-10-31T18:34:56;98864.12;;;20.93;13.76
64698;BME280;51124;53.394;-6.294;2023-10-31T18:37:22;98868.76;;;20.70;13.79
64698;BME280;51124;53.394;-6.294;2023-10-31T18:39:47;98863.21;;;21.41;13.55
64698;BME280;51124;53.394;-6.294;2023-10-31T18:42:13;98858.35;;;20.87;14.01
64698;BME280;51124;53.394;-6.294;2023-10-31T18:44:39;98848.33;;;20.69;13.84
64698;BME280;51124;53.394;-6.294;2023-10-31T18:47:04;98845.84;;;19.63;13.67
64698;BME280;51124;53.394;-6.294;2023-10-31T18:49:29;98843.41;;;18.46;13.40
64698;BME280;51124;53.394;-6.294;2023-10-31T18:51:55;98839.86;;;17.46;13.12
64698;BME280;51124;53.394;-6.294;2023-10-31T18:54:20;98835.56;;;18.39;12.56
64698;BME280;51124;53.394;-6.294;2023-10-31T18:56:45;98832.77;;;17.95;12.79
64698;BME280;51124;53.394;-6.294;2023-10-31T18:59:10;98830.87;;;17.66;12.31
64698;BME280;51124;53.394;-6.294;2023-10-31T19:01:36;98825.28;;;18.94;11.12
64698;BME280;51124;53.394;-6.294;2023-10-31T19:04:01;98821.89;;;19.13;11.15
64698;BME280;51124;53.394;-6.294;2023-10-31T19:06:26;98813.92;;;18.51;11.13
64698;BME280;51124;53.394;-6.294;2023-10-31T19:08:51;98808.88;;;18.29;11.11
64698;BME280;51124;53.394;-6.294;2023-10-31T19:11:17;98806.16;;;18.56;11.01
64698;BME280;51124;53.394;-6.294;2023-10-31T19:13:42;98803.13;;;18.77;10.87
64698;BME280;51124;53.394;-6.294;2023-10-31T19:16:07;98796.93;;;19.48;10.87
64698;BME280;51124;53.394;-6.294;2023-10-31T19:18:32;98797.68;;;19.45;10.87
64698;BME280;51124;53.394;-6.294;2023-10-31T19:20:58;98790.17;;;19.30;10.83
64698;BME280;51124;53.394;-6.294;2023-10-31T19:23:23;98784.09;;;19.54;10.51
64698;BME280;51124;53.394;-6.294;2023-10-31T19:25:48;98779.00;;;20.02;10.51
64698;BME280;51124;53.394;-6.294;2023-10-31T19:28:13;98773.69;;;19.59;10.50
64698;BME280;51124;53.394;-6.294;2023-10-31T19:30:39;98770.83;;;19.93;10.37
64698;BME280;51124;53.394;-6.294;2023-10-31T19:33:04;98767.11;;;20.55;10.29
64698;BME280;51124;53.394;-6.294;2023-10-31T19:35:29;98766.66;;;20.60;10.26
64698;BME280;51124;53.394;-6.294;2023-10-31T19:37:54;98762.55;;;20.40;10.22
64698;BME280;51124;53.394;-6.294;2023-10-31T19:40:19;98756.24;;;19.59;10.37
64698;BME280;51124;53.394;-6.294;2023-10-31T19:42:45;98757.46;;;20.19;10.17
64698;BME280;51124;53.394;-6.294;2023-10-31T19:45:10;98753.26;;;20.63;10.18
64698;BME280;51124;53.394;-6.294;2023-10-31T19:47:36;98750.47;;;20.90;10.22
64698;BME280;51124;53.394;-6.294;2023-10-31T19:50:01;98747.82;;;20.65;10.30
64698;BME280;51124;53.394;-6.294;2023-10-31T19:52:27;98747.14;;;20.53;10.35
64698;BME280;51124;53.394;-6.294;2023-10-31T19:54:52;98745.19;;;20.44;10.33
64698;BME280;51124;53.394;-6.294;2023-10-31T19:57:17;98738.58;;;20.27;10.37
64698;BME280;51124;53.394;-6.294;2023-10-31T19:59:42;98736.82;;;20.32;10.37
64698;BME280;51124;53.394;-6.294;2023-10-31T20:02:08;98731.24;;;20.74;10.30
64698;BME280;51124;53.394;-6.294;2023-10-31T20:04:33;98725.76;;;20.30;10.39
64698;BME280;51124;53.394;-6.294;2023-10-31T20:06:58;98722.60;;;20.00;10.29
64698;BME280;51124;53.394;-6.294;2023-10-31T20:09:23;98713.30;;;20.26;10.16
64698;BME280;51124;53.394;-6.294;2023-10-31T20:11:48;98706.42;;;19.98;10.18
64698;BME280;51124;53.394;-6.294;2023-10-31T20:14:13;98704.85;;;20.61;10.06
64698;BME280;51124;53.394;-6.294;2023-10-31T20:16:39;98697.68;;;20.79;10.17
64698;BME280;51124;53.394;-6.294;2023-10-31T20:19:04;98690.83;;;20.31;10.25
64698;BME280;51124;53.394;-6.294;2023-10-31T20:21:29;98686.92;;;19.49;10.59
64698;BME280;51124;53.394;-6.294;2023-10-31T20:23:55;98681.28;;;20.44;10.25
64698;BME280;51124;53.394;-6.294;2023-10-31T20:26:20;98679.75;;;20.76;10.14
64698;BME280;51124;53.394;-6.294;2023-10-31T20:28:45;98676.45;;;20.06;10.17
64698;BME280;51124;53.394;-6.294;2023-10-31T20:31:10;98678.14;;;19.50;10.40
64698;BME280;51124;53.394;-6.294;2023-10-31T20:33:36;98670.54;;;19.71;10.41
64698;BME280;51124;53.394;-6.294;2023-10-31T20:36:01;98664.73;;;19.76;10.13
64698;BME280;51124;53.394;-6.294;2023-10-31T20:38:26;98663.03;;;20.60;10.11
64698;BME280;51124;53.394;-6.294;2023-10-31T20:40:51;98660.64;;;19.96;10.26
64698;BME280;51124;53.394;-6.294;2023-10-31T20:43:17;98656.35;;;22.53;10.29
64698;BME280;51124;53.394;-6.294;2023-10-31T20:45:42;98654.38;;;22.29;10.84
64698;BME280;51124;53.394;-6.294;2023-10-31T20:48:07;98644.97;;;20.02;11.09
64698;BME280;51124;53.394;-6.294;2023-10-31T20:50:33;98640.39;;;20.67;11.08
64698;BME280;51124;53.394;-6.294;2023-10-31T20:52:58;98639.45;;;21.94;11.85
64698;BME280;51124;53.394;-6.294;2023-10-31T20:55:23;98632.43;;;22.07;13.31
64698;BME280;51124;53.394;-6.294;2023-10-31T20:57:49;98633.13;;;22.71;12.75
64698;BME280;51124;53.394;-6.294;2023-10-31T21:00:15;98630.55;;;22.30;13.37
64698;BME280;51124;53.394;-6.294;2023-10-31T21:02:48;98624.57;;;22.00;13.33
64698;BME280;51124;53.394;-6.294;2023-10-31T21:05:16;98620.30;;;22.33;13.54
64698;BME280;51124;53.394;-6.294;2023-10-31T21:07:43;98616.00;;;22.36;13.54
64698;BME280;51124;53.394;-6.294;2023-10-31T21:10:11;98604.66;;;22.20;13.41
64698;BME280;51124;53.394;-6.294;2023-10-31T21:12:38;98599.08;;;22.03;13.36
64698;BME280;51124;53.394;-6.294;2023-10-31T21:15:06;98599.64;;;22.11;13.56
64698;BME280;51124;53.394;-6.294;2023-10-31T21:17:35;98593.48;;;21.82;13.45
64698;BME280;51124;53.394;-6.294;2023-10-31T21:20:03;98589.45;;;21.95;13.51
64698;BME280;51124;53.394;-6.294;2023-10-31T21:22:30;98578.55;;;21.96;13.25
64698;BME280;51124;53.394;-6.294;2023-10-31T21:24:58;98568.78;;;21.61;13.47
64698;BME280;51124;53.394;-6.294;2023-10-31T21:27:27;98561.94;;;22.25;13.36
64698;BME280;51124;53.394;-6.294;2023-10-31T21:29:55;98552.68;;;21.49;13.68
64698;BME280;51124;53.394;-6.294;2023-10-31T21:32:23;98549.25;;;22.05;13.42
64698;BME280;51124;53.394;-6.294;2023-10-31T21:34:50;98541.36;;;21.79;13.53
64698;BME280;51124;53.394;-6.294;2023-10-31T21:37:18;98539.87;;;21.48;13.48
64698;BME280;51124;53.394;-6.294;2023-10-31T21:39:45;98538.16;;;22.16;13.46
64698;BME280;51124;53.394;-6.294;2023-10-31T21:42:13;98534.37;;;19.99;13.59
64698;BME280;51124;53.394;-6.294;2023-10-31T21:44:41;98536.05;;;19.62;12.86
64698;BME280;51124;53.394;-6.294;2023-10-31T21:47:08;98523.74;;;19.87;12.35
64698;BME280;51124;53.394;-6.294;2023-10-31T21:49:35;98519.70;;;19.57;12.18
64698;BME280;51124;53.394;-6.294;2023-10-31T21:52:03;98511.63;;;19.57;11.80
64698;BME280;51124;53.394;-6.294;2023-10-31T21:54:30;98510.35;;;18.91;11.87
64698;BME280;51124;53.394;-6.294;2023-10-31T21:56:57;98506.38;;;19.60;11.43
64698;BME280;51124;53.394;-6.294;2023-10-31T21:59:25;98502.79;;;20.08;11.19
64698;BME280;51124;53.394;-6.294;2023-10-31T22:01:52;98495.53;;;19.87;11.02
64698;BME280;51124;53.394;-6.294;2023-10-31T22:04:19;98484.25;;;20.23;10.87
64698;BME280;51124;53.394;-6.294;2023-10-31T22:06:46;98481.87;;;20.10;10.92
64698;BME280;51124;53.394;-6.294;2023-10-31T22:09:14;98477.14;;;19.73;11.10
64698;BME280;51124;53.394;-6.294;2023-10-31T22:11:41;98469.27;;;20.12;10.90
64698;BME280;51124;53.394;-6.294;2023-10-31T22:14:09;98464.51;;;19.64;11.04
64698;BME280;51124;53.394;-6.294;2023-10-31T22:16:36;98458.79;;;19.59;10.98
64698;BME280;51124;53.394;-6.294;2023-10-31T22:19:04;98448.48;;;19.60;10.81
64698;BME280;51124;53.394;-6.294;2023-10-31T22:21:31;98446.83;;;19.61;10.79
64698;BME280;51124;53.394;-6.294;2023-10-31T22:23:59;98438.65;;;19.61;10.78
64698;BME280;51124;53.394;-6.294;2023-10-31T22:26:26;98428.21;;;20.34;10.74
64698;BME280;51124;53.394;-6.294;2023-10-31T22:28:53;98424.42;;;20.00;10.72
64698;BME280;51124;53.394;-6.294;2023-10-31T22:31:21;98422.02;;;19.32;10.90
64698;BME280;51124;53.394;-6.294;2023-10-31T22:33:48;98419.33;;;19.67;10.76
64698;BME280;51124;53.394;-6.294;2023-10-31T22:36:15;98411.55;;;19.50;10.72
64698;BME280;51124;53.394;-6.294;2023-10-31T22:38:42;98406.34;;;19.82;10.66
64698;BME280;51124;53.394;-6.294;2023-10-31T22:41:10;98405.47;;;20.09;10.52
64698;BME280;51124;53.394;-6.294;2023-10-31T22:43:37;98400.00;;;19.41;10.65
64698;BME280;51124;53.394;-6.294;2023-10-31T22:46:07;98392.47;;;20.32;10.46
64698;BME280;51124;53.394;-6.294;2023-10-31T22:48:35;98388.37;;;20.25;10.45
64698;BME280;51124;53.394;-6.294;2023-10-31T22:51:02;98376.47;;;20.16;10.67